createdAt,value
2017-11-12T00:01:02.154Z,96.96
2017-11-12T00:03:37.013Z,97.12
2017-11-12T00:06:12.037Z,97.17
2017-11-12T00:08:46.793Z,97.18
2017-11-12T00:11:21.913Z,97.31
2017-11-12T00:13:56.936Z,97.37
2017-11-12T00:16:31.828Z,97.50
2017-11-12T00:19:06.634Z,97.59
2017-11-12T00:21:42.101Z,97.60
2017-11-12T00:24:16.794Z,97.64
2017-11-12T00:26:51.297Z,97.65
2017-11-12T00:29:26.194Z,97.61
2017-11-12T00:32:00.825Z,97.62
2017-11-12T00:34:35.629Z,97.56
2017-11-12T00:37:10.305Z,97.69
2017-11-12T00:39:45.117Z,97.71
2017-11-12T00:42:19.657Z,97.68
2017-11-12T00:44:54.092Z,97.61
2017-11-12T00:47:29.157Z,97.67
2017-11-12T00:50:03.817Z,97.72
2017-11-12T00:52:38.718Z,97.68
2017-11-12T00:55:13.504Z,97.69
2017-11-12T00:57:48.245Z,97.72
2017-11-12T01:00:23.907Z,97.72
2017-11-12T01:02:58.581Z,97.82
2017-11-12T01:05:33.353Z,97.76
2017-11-12T01:08:08.468Z,97.73
2017-11-12T01:10:43.128Z,97.71
2017-11-12T01:13:18.233Z,97.82
2017-11-12T01:15:53.261Z,97.99
2017-11-12T01:18:28.266Z,98.15
2017-11-12T01:21:03.161Z,97.92
2017-11-12T01:23:37.897Z,98.63
2017-11-12T01:26:13.001Z,98.38
2017-11-12T01:28:47.797Z,98.08
2017-11-12T01:31:22.577Z,97.75
2017-11-12T01:33:57.382Z,97.47
2017-11-12T01:36:32.308Z,97.48
2017-11-12T01:39:07.114Z,97.36
2017-11-12T01:41:41.982Z,97.33
2017-11-12T01:44:16.833Z,97.11
2017-11-12T01:46:52.432Z,97.07
2017-11-12T01:49:27.229Z,96.70
2017-11-12T01:52:01.610Z,96.44
2017-11-12T01:54:36.514Z,96.52
2017-11-12T01:57:10.977Z,96.44
2017-11-12T01:59:45.690Z,96.53
2017-11-12T02:02:20.441Z,96.66
2017-11-12T02:04:55.174Z,96.82
2017-11-12T02:07:29.780Z,96.94
2017-11-12T02:10:04.184Z,97.01
2017-11-12T02:12:38.610Z,97.04
2017-11-12T02:15:14.440Z,96.89
2017-11-12T02:17:50.029Z,96.89
2017-11-12T02:20:24.861Z,97.00
2017-11-12T02:22:59.329Z,96.83
2017-11-12T02:25:33.477Z,96.92
2017-11-12T02:28:08.248Z,97.17
2017-11-12T02:30:43.203Z,97.25
2017-11-12T02:33:18.000Z,97.42
2017-11-12T02:35:52.609Z,97.34
2017-11-12T02:38:27.308Z,97.33
2017-11-12T02:41:01.898Z,97.06
2017-11-12T02:43:36.858Z,96.96
2017-11-12T02:46:11.477Z,97.09
2017-11-12T02:48:46.221Z,97.24
2017-11-12T02:51:20.960Z,97.48
2017-11-12T02:53:55.708Z,97.49
2017-11-12T02:56:30.129Z,97.54
2017-11-12T02:59:05.239Z,97.64
2017-11-12T03:01:40.166Z,97.67
2017-11-12T03:04:14.971Z,97.32
2017-11-12T03:06:49.823Z,97.01
2017-11-12T03:09:24.785Z,96.79
2017-11-12T03:11:59.385Z,97.01
2017-11-12T03:14:33.977Z,97.40
2017-11-12T03:17:09.213Z,97.38
2017-11-12T03:19:43.961Z,97.36
2017-11-12T03:22:18.689Z,97.43
2017-11-12T03:24:53.345Z,97.46
2017-11-12T03:27:28.006Z,97.51
2017-11-12T03:30:03.133Z,97.62
2017-11-12T03:32:37.930Z,97.83
2017-11-12T03:35:12.726Z,98.14
2017-11-12T03:37:47.132Z,98.22
2017-11-12T03:40:22.084Z,97.94
2017-11-12T03:42:56.989Z,97.98
2017-11-12T03:45:31.673Z,97.84
2017-11-12T03:48:06.773Z,97.51
2017-11-12T03:50:41.150Z,97.25
2017-11-12T03:53:15.682Z,97.21
2017-11-12T03:55:51.029Z,97.24
2017-11-12T03:58:25.369Z,97.19
2017-11-12T04:00:59.449Z,97.11
2017-11-12T04:03:34.098Z,97.16
2017-11-12T04:06:08.865Z,97.19
2017-11-12T04:08:43.434Z,97.11
2017-11-12T04:11:18.008Z,97.14
2017-11-12T04:13:53.000Z,97.23
2017-11-12T04:16:28.170Z,97.12
2017-11-12T04:19:03.743Z,97.34
2017-11-12T04:21:37.976Z,97.46
2017-11-12T04:24:12.629Z,97.65
2017-11-12T04:26:47.680Z,97.82
2017-11-12T04:29:22.417Z,97.91
2017-11-12T04:31:57.141Z,97.69
2017-11-12T04:34:32.260Z,97.41
2017-11-12T04:37:07.079Z,97.18
2017-11-12T04:39:41.767Z,97.19
2017-11-12T04:42:16.858Z,97.24
2017-11-12T04:44:51.922Z,97.42
2017-11-12T04:47:26.881Z,97.92
2017-11-12T04:50:01.705Z,97.71
2017-11-12T04:52:36.510Z,97.50
2017-11-12T04:55:11.072Z,97.65
2017-11-12T04:57:45.806Z,97.82
2017-11-12T05:00:20.309Z,97.51
2017-11-12T05:02:54.306Z,97.37
2017-11-12T05:05:28.353Z,97.41
2017-11-12T05:08:03.485Z,97.26
2017-11-12T05:10:38.042Z,97.22
2017-11-12T05:13:13.208Z,97.32
2017-11-12T05:15:48.061Z,97.43
2017-11-12T05:18:22.745Z,97.45
2017-11-12T05:20:57.469Z,97.61
2017-11-12T05:23:32.580Z,97.72
2017-11-12T05:26:07.097Z,97.74
2017-11-12T05:28:42.189Z,97.69
2017-11-12T05:31:16.885Z,97.67
2017-11-12T05:33:51.794Z,97.75
2017-11-12T05:36:26.518Z,97.83
2017-11-12T05:39:01.225Z,97.79
2017-11-12T05:41:35.817Z,97.69
2017-11-12T05:44:11.432Z,97.81
2017-11-12T05:46:46.904Z,97.63
2017-11-12T05:49:21.804Z,97.39
2017-11-12T05:51:56.534Z,97.30
2017-11-12T05:54:31.166Z,97.49
2017-11-12T05:57:06.162Z,97.41
2017-11-12T05:59:41.074Z,97.42
2017-11-12T06:02:16.088Z,97.20
2017-11-12T06:04:51.302Z,97.51
2017-11-12T06:07:25.732Z,97.98
2017-11-12T06:10:00.545Z,98.37
2017-11-12T06:12:35.532Z,98.33
2017-11-12T06:15:09.978Z,98.26
2017-11-12T06:17:45.277Z,97.90
2017-11-12T06:20:20.094Z,97.70
2017-11-12T06:22:55.509Z,97.84
2017-11-12T06:25:30.792Z,98.21
2017-11-12T06:28:05.569Z,98.40
2017-11-12T06:30:40.477Z,98.27
2017-11-12T06:33:15.116Z,98.32
2017-11-12T06:35:50.109Z,98.26
2017-11-12T06:38:25.219Z,98.65
2017-11-12T06:41:00.293Z,98.36
2017-11-12T06:43:35.174Z,98.39
2017-11-12T06:46:10.377Z,98.44
2017-11-12T06:48:45.601Z,98.57
2017-11-12T06:51:20.528Z,98.69
2017-11-12T06:53:55.559Z,98.95
2017-11-12T06:56:30.871Z,99.11
2017-11-12T06:59:05.786Z,98.92
2017-11-12T07:01:40.405Z,99.03
2017-11-12T07:04:15.517Z,99.36
2017-11-12T07:06:50.635Z,99.60
2017-11-12T07:09:25.607Z,99.99
2017-11-12T07:12:00.717Z,100.00
2017-11-12T07:14:35.737Z,100.00
2017-11-12T07:17:10.664Z,100.00
2017-11-12T07:19:45.689Z,100.00
2017-11-12T07:22:20.754Z,100.00
2017-11-12T07:24:56.525Z,100.00
2017-11-12T07:27:31.333Z,100.00
2017-11-12T07:30:06.158Z,100.00
2017-11-12T07:32:41.314Z,100.00
2017-11-12T07:35:16.429Z,99.81
2017-11-12T07:37:51.846Z,99.55
2017-11-12T07:40:27.042Z,99.38
2017-11-12T07:43:01.845Z,99.20
2017-11-12T07:45:36.398Z,98.80
2017-11-12T07:48:11.569Z,98.11
2017-11-12T07:50:46.397Z,97.44
2017-11-12T07:53:20.814Z,97.15
2017-11-12T07:55:55.837Z,97.09
2017-11-12T07:58:30.854Z,97.06
2017-11-12T08:01:06.038Z,97.35
2017-11-12T08:03:40.489Z,97.11
2017-11-12T08:06:15.510Z,96.83
2017-11-12T08:08:49.911Z,96.73
2017-11-12T08:11:24.990Z,96.92
2017-11-12T08:13:59.689Z,97.09
2017-11-12T08:16:34.810Z,97.61
2017-11-12T08:19:09.822Z,97.53
2017-11-12T08:21:44.982Z,97.52
2017-11-12T08:24:19.956Z,97.40
2017-11-12T08:26:55.054Z,97.37
2017-11-12T08:29:30.314Z,97.33
2017-11-12T08:32:05.136Z,97.25
2017-11-12T08:34:39.585Z,97.38
2017-11-12T08:37:14.725Z,97.69
2017-11-12T08:39:49.777Z,97.91
2017-11-12T08:42:24.786Z,98.05
2017-11-12T08:44:59.801Z,98.19
2017-11-12T08:47:35.217Z,98.27
2017-11-12T08:50:10.157Z,98.22
2017-11-12T08:52:45.144Z,98.19
2017-11-12T08:55:19.293Z,98.17
2017-11-12T08:57:54.273Z,98.34
2017-11-12T09:00:29.564Z,98.62
2017-11-12T09:03:04.106Z,98.77
2017-11-12T09:05:40.001Z,98.73
2017-11-12T09:08:15.569Z,98.83
2017-11-12T09:10:50.590Z,98.53
2017-11-12T09:13:25.894Z,98.33
2017-11-12T09:16:00.507Z,97.83
2017-11-12T09:18:35.557Z,97.51
2017-11-12T09:21:10.113Z,97.37
2017-11-12T09:23:44.943Z,97.38
2017-11-12T09:26:19.758Z,97.34
2017-11-12T09:28:54.377Z,97.57
2017-11-12T09:31:29.189Z,97.91
2017-11-12T09:34:03.781Z,97.99
2017-11-12T09:36:38.543Z,97.88
2017-11-12T09:39:12.777Z,97.62
2017-11-12T09:41:48.146Z,97.77
2017-11-12T09:44:22.793Z,97.73
2017-11-12T09:46:59.733Z,97.88
2017-11-12T09:49:33.841Z,97.78
2017-11-12T09:52:09.037Z,97.84
2017-11-12T09:54:44.342Z,97.83
2017-11-12T09:57:19.337Z,97.77
2017-11-12T09:59:54.358Z,97.76
2017-11-12T10:02:29.366Z,97.62
2017-11-12T10:05:04.312Z,97.73
2017-11-12T10:07:39.304Z,97.76
2017-11-12T10:10:14.413Z,97.88
2017-11-12T10:12:49.765Z,97.57
2017-11-12T10:15:24.955Z,97.50
2017-11-12T10:18:01.181Z,97.56
2017-11-12T10:20:36.249Z,97.62
2017-11-12T10:23:11.370Z,97.69
2017-11-12T10:25:46.350Z,97.24
2017-11-12T10:28:21.607Z,97.36
2017-11-12T10:30:57.470Z,97.63
2017-11-12T10:33:32.459Z,97.55
2017-11-12T10:36:07.764Z,97.53
2017-11-12T10:38:42.669Z,97.59
2017-11-12T10:41:17.697Z,97.46
2017-11-12T10:43:52.821Z,97.10
2017-11-12T10:46:28.264Z,97.32
2017-11-12T10:49:03.153Z,97.31
2017-11-12T10:51:38.361Z,97.43
2017-11-12T10:54:13.468Z,97.50
2017-11-12T10:56:48.000Z,97.38
2017-11-12T10:59:22.921Z,97.34
2017-11-12T11:01:57.752Z,97.37
2017-11-12T11:04:32.645Z,97.66
2017-11-12T11:07:07.613Z,97.80
2017-11-12T11:09:42.025Z,97.68
2017-11-12T11:12:17.151Z,97.38
2017-11-12T11:14:53.005Z,97.30
2017-11-12T11:17:27.901Z,97.43
2017-11-12T11:20:03.085Z,97.48
2017-11-12T11:22:37.793Z,97.54
2017-11-12T11:25:12.889Z,97.49
2017-11-12T11:27:47.718Z,97.53
2017-11-12T11:30:23.378Z,97.63
2017-11-12T11:32:58.348Z,97.50
2017-11-12T11:35:33.123Z,97.51
2017-11-12T11:38:08.304Z,97.41
2017-11-12T11:40:43.607Z,97.44
2017-11-12T11:43:18.229Z,97.48
2017-11-12T11:45:53.817Z,97.25
2017-11-12T11:48:29.141Z,96.77
2017-11-12T11:51:04.054Z,96.70
2017-11-12T11:53:39.294Z,97.10
2017-11-12T11:56:14.816Z,96.95
2017-11-12T11:58:49.905Z,96.73
2017-11-12T12:01:25.691Z,96.72
2017-11-12T12:04:00.985Z,96.93
2017-11-12T12:06:35.968Z,96.85
2017-11-12T12:09:11.199Z,96.78
2017-11-12T12:11:46.402Z,96.40
2017-11-12T12:14:21.583Z,95.93
2017-11-12T12:16:56.234Z,95.75
2017-11-12T12:19:31.204Z,95.79
2017-11-12T12:22:06.013Z,96.22
2017-11-12T12:24:41.106Z,96.49
2017-11-12T12:27:15.993Z,95.88
2017-11-12T12:29:50.988Z,94.95
2017-11-12T12:32:26.100Z,94.92
2017-11-12T12:35:01.202Z,94.55
2017-11-12T12:37:36.097Z,94.01
2017-11-12T12:40:11.131Z,93.72
2017-11-12T12:42:46.518Z,93.60
2017-11-12T12:45:21.709Z,93.86
2017-11-12T12:47:56.097Z,93.90
2017-11-12T12:50:30.597Z,94.07
2017-11-12T12:53:05.497Z,93.81
2017-11-12T12:55:40.798Z,94.09
2017-11-12T12:58:15.806Z,94.47
2017-11-12T13:00:51.053Z,94.92
2017-11-12T13:03:25.874Z,95.12
2017-11-12T13:06:00.485Z,94.95
2017-11-12T13:08:35.787Z,94.68
2017-11-12T13:11:11.017Z,94.35
2017-11-12T13:13:46.017Z,94.49
2017-11-12T13:16:21.056Z,94.48
2017-11-12T13:18:56.072Z,94.43
2017-11-12T13:21:30.743Z,94.38
2017-11-12T13:24:05.070Z,94.18
2017-11-12T13:26:39.325Z,94.29
2017-11-12T13:29:14.437Z,94.09
2017-11-12T13:31:49.066Z,94.35
2017-11-12T13:34:24.046Z,94.63
2017-11-12T13:36:58.718Z,94.23
2017-11-12T13:39:33.816Z,94.21
2017-11-12T13:42:08.653Z,93.87
2017-11-12T13:44:43.437Z,93.73
2017-11-12T13:47:18.706Z,93.83
2017-11-12T13:49:53.415Z,94.01
2017-11-12T13:52:28.435Z,94.00
2017-11-12T13:55:03.814Z,94.34
2017-11-12T13:57:38.760Z,94.47
2017-11-12T14:00:14.034Z,93.94
2017-11-12T14:02:49.633Z,93.32
2017-11-12T14:05:24.518Z,93.64
2017-11-12T14:07:59.081Z,93.85
2017-11-12T14:10:34.070Z,94.07
2017-11-12T14:13:08.834Z,94.30
2017-11-12T14:15:43.725Z,94.44
2017-11-12T14:18:18.916Z,94.59
2017-11-12T14:20:54.189Z,94.64
2017-11-12T14:23:28.694Z,94.67
2017-11-12T14:26:03.769Z,94.72
2017-11-12T14:28:38.649Z,94.70
2017-11-12T14:31:13.640Z,94.68
2017-11-12T14:33:48.506Z,94.66
2017-11-12T14:36:24.285Z,94.40
2017-11-12T14:38:59.087Z,94.30
2017-11-12T14:41:34.117Z,94.54
2017-11-12T14:44:09.025Z,94.82
2017-11-12T14:46:43.946Z,94.70
2017-11-12T14:49:18.850Z,94.66
2017-11-12T14:51:53.672Z,94.99
2017-11-12T14:54:28.630Z,95.17
2017-11-12T14:57:03.789Z,95.38
2017-11-12T14:59:38.437Z,95.33
2017-11-12T15:02:13.593Z,94.89
2017-11-12T15:04:48.397Z,94.63
2017-11-12T15:07:22.989Z,93.95
2017-11-12T15:09:57.841Z,93.99
2017-11-12T15:12:32.472Z,93.04
2017-11-12T15:15:07.189Z,93.11
2017-11-12T15:17:42.105Z,93.45
2017-11-12T15:20:17.086Z,93.77
2017-11-12T15:22:51.981Z,94.00
2017-11-12T15:25:26.785Z,94.31
2017-11-12T15:28:01.770Z,94.61
2017-11-12T15:30:36.578Z,94.79
2017-11-12T15:33:11.302Z,94.82
2017-11-12T15:35:46.412Z,94.50
2017-11-12T15:38:21.607Z,94.29
2017-11-12T15:40:56.458Z,94.08
2017-11-12T15:43:31.590Z,94.03
2017-11-12T15:46:06.394Z,94.28
2017-11-12T15:48:41.561Z,94.37
2017-11-12T15:51:16.651Z,94.53
2017-11-12T15:53:51.498Z,94.67
2017-11-12T15:56:27.307Z,94.76
2017-11-12T15:59:01.986Z,94.78
2017-11-12T16:01:36.947Z,94.63
2017-11-12T16:04:11.733Z,94.44
2017-11-12T16:06:46.571Z,94.37
2017-11-12T16:09:22.413Z,94.48
2017-11-12T16:11:57.369Z,94.39
2017-11-12T16:14:32.146Z,94.20
2017-11-12T16:17:07.032Z,94.29
2017-11-12T16:19:41.829Z,94.27
2017-11-12T16:22:16.591Z,94.41
2017-11-12T16:24:51.287Z,94.53
2017-11-12T16:27:26.166Z,94.63
2017-11-12T16:30:01.362Z,94.64
2017-11-12T16:32:37.451Z,94.55
2017-11-12T16:35:12.925Z,94.61
2017-11-12T16:37:47.734Z,94.50
2017-11-12T16:40:22.649Z,94.47
2017-11-12T16:42:57.470Z,94.40
2017-11-12T16:45:32.681Z,94.48
2017-11-12T16:48:07.894Z,94.56
2017-11-12T16:50:43.041Z,94.62
2017-11-12T16:53:18.132Z,94.50
2017-11-12T16:55:53.269Z,94.61
2017-11-12T16:58:28.198Z,94.74
2017-11-12T17:01:03.058Z,94.74
2017-11-12T17:03:38.277Z,94.76
2017-11-12T17:06:12.897Z,94.80
2017-11-12T17:08:48.117Z,94.84
2017-11-12T17:11:23.322Z,94.92
2017-11-12T17:13:58.346Z,95.03
2017-11-12T17:16:33.499Z,94.92
2017-11-12T17:19:08.266Z,94.97
2017-11-12T17:21:43.186Z,95.08
2017-11-12T17:24:18.357Z,95.05
2017-11-12T17:26:53.446Z,95.29
2017-11-12T17:29:28.808Z,95.55
2017-11-12T17:32:03.723Z,95.67
2017-11-12T17:34:38.371Z,95.71
2017-11-12T17:37:13.851Z,95.75
2017-11-12T17:39:48.982Z,95.77
2017-11-12T17:42:23.779Z,95.83
2017-11-12T17:44:58.300Z,95.86
2017-11-12T17:47:33.109Z,95.91
2017-11-12T17:50:08.133Z,96.03
2017-11-12T17:52:43.141Z,96.14
2017-11-12T17:55:18.370Z,96.20
2017-11-12T17:57:53.274Z,96.19
2017-11-12T18:00:28.597Z,96.30
2017-11-12T18:03:03.258Z,96.44
2017-11-12T18:05:38.470Z,96.39
2017-11-12T18:08:13.461Z,96.45
2017-11-12T18:10:48.563Z,96.39
2017-11-12T18:13:23.622Z,96.32
2017-11-12T18:15:59.462Z,96.39
2017-11-12T18:18:34.425Z,96.43
2017-11-12T18:21:09.457Z,96.49
2017-11-12T18:23:44.554Z,96.62
2017-11-12T18:26:19.742Z,96.75
2017-11-12T18:28:54.137Z,96.77
2017-11-12T18:31:29.040Z,96.70
2017-11-12T18:34:04.313Z,96.75
2017-11-12T18:36:39.049Z,96.81
2017-11-12T18:39:14.066Z,96.71
2017-11-12T18:41:48.885Z,96.65
2017-11-12T18:44:23.970Z,96.59
2017-11-12T18:46:58.694Z,96.67
2017-11-12T18:49:33.202Z,96.87
2017-11-12T18:52:08.094Z,96.78
2017-11-12T18:54:46.251Z,96.86
2017-11-12T19:10:58.169Z,97.46
2017-11-12T19:13:32.969Z,97.64
2017-11-12T19:16:07.721Z,97.72
2017-11-12T19:32:13.064Z,98.26
2017-11-12T19:34:47.892Z,98.47
2017-11-12T19:37:22.860Z,98.43
2017-11-12T19:39:57.881Z,98.54
2017-11-12T19:42:32.892Z,98.51
2017-11-12T19:45:07.882Z,98.51
2017-11-12T19:47:43.130Z,98.60
2017-11-12T19:50:18.368Z,98.68
2017-11-12T19:52:53.617Z,98.75
2017-11-12T19:55:28.669Z,98.70
2017-11-12T19:58:03.557Z,98.86
2017-11-12T20:00:38.930Z,99.04
2017-11-12T20:03:13.872Z,99.18
2017-11-12T20:05:49.008Z,98.92
2017-11-12T20:08:24.053Z,98.53
2017-11-12T20:10:58.865Z,98.18
2017-11-12T20:13:34.128Z,98.18
2017-11-12T20:16:09.004Z,98.40
2017-11-12T20:18:43.995Z,98.51
2017-11-12T20:21:19.232Z,98.63
2017-11-12T20:23:54.569Z,98.72
2017-11-12T20:26:29.872Z,98.71
2017-11-12T20:29:04.562Z,98.48
2017-11-12T20:31:39.381Z,98.51
2017-11-12T20:34:14.117Z,98.46
2017-11-12T20:36:48.940Z,98.35
2017-11-12T20:39:24.042Z,98.29
2017-11-12T20:41:59.027Z,98.30
2017-11-12T20:44:33.921Z,98.35
2017-11-12T20:47:08.816Z,98.22
2017-11-12T20:49:43.267Z,98.25
2017-11-12T20:52:18.989Z,98.49
2017-11-12T20:54:53.891Z,98.44
2017-11-12T20:57:28.628Z,98.61
2017-11-12T21:00:03.411Z,98.79
2017-11-12T21:02:38.120Z,98.69
2017-11-12T21:05:14.372Z,98.82
2017-11-12T21:07:48.593Z,98.96
2017-11-12T21:10:23.616Z,99.03
2017-11-12T21:12:58.340Z,99.17
2017-11-12T21:15:33.280Z,98.99
2017-11-12T21:18:08.385Z,99.08
2017-11-12T21:20:43.257Z,99.22
2017-11-12T21:23:24.055Z,99.06
2017-11-12T21:25:58.508Z,98.96
2017-11-12T21:28:43.170Z,98.99
2017-11-12T21:31:21.676Z,98.95
2017-11-12T21:33:58.004Z,99.16
2017-11-12T21:36:45.977Z,99.40
2017-11-12T21:39:21.077Z,99.12
2017-11-12T21:41:56.029Z,99.00
2017-11-12T21:44:30.876Z,99.07
2017-11-12T21:47:06.057Z,98.90
2017-11-12T21:49:41.077Z,98.76
2017-11-12T21:52:16.001Z,98.85
2017-11-12T21:54:51.069Z,99.03
2017-11-12T21:57:26.437Z,99.14
2017-11-12T22:00:00.969Z,99.11
2017-11-12T22:02:35.869Z,98.91
2017-11-12T22:05:10.832Z,98.76
2017-11-12T22:07:45.790Z,98.33
2017-11-12T22:10:20.965Z,98.14
2017-11-12T22:12:55.854Z,98.35
2017-11-12T22:15:30.705Z,98.36
2017-11-12T22:18:05.934Z,98.44
2017-11-12T22:20:40.771Z,98.51
2017-11-12T22:23:15.557Z,98.55
2017-11-12T22:25:50.503Z,98.71
2017-11-12T22:28:25.308Z,98.79
2017-11-12T22:31:00.216Z,98.73
2017-11-12T22:33:35.152Z,98.48
2017-11-12T22:36:10.115Z,98.51
2017-11-12T22:38:45.309Z,98.50
2017-11-12T22:41:20.324Z,98.35
2017-11-12T22:43:55.384Z,98.34
2017-11-12T22:46:30.537Z,98.08
2017-11-12T22:49:05.840Z,97.98
2017-11-12T22:51:40.927Z,98.02
2017-11-12T22:54:15.352Z,98.17
2017-11-12T22:56:50.351Z,98.35
2017-11-12T22:59:25.559Z,98.36
2017-11-12T23:02:00.553Z,98.25
2017-11-12T23:04:35.896Z,98.26
2017-11-12T23:07:11.092Z,98.34
2017-11-12T23:09:46.248Z,98.23
2017-11-12T23:12:21.136Z,98.19
2017-11-12T23:14:55.956Z,98.23
2017-11-12T23:17:30.780Z,98.37
2017-11-12T23:20:05.515Z,98.46
2017-11-12T23:22:40.548Z,98.11
2017-11-12T23:25:15.240Z,97.97
2017-11-12T23:27:50.238Z,98.08
2017-11-12T23:30:25.821Z,98.25
2017-11-12T23:33:00.537Z,98.31
2017-11-12T23:35:35.378Z,98.10
2017-11-12T23:38:10.310Z,97.95
2017-11-12T23:40:45.081Z,97.86
2017-11-12T23:43:20.188Z,97.88
2017-11-12T23:45:55.119Z,97.76
2017-11-12T23:48:29.949Z,97.66
2017-11-12T23:51:05.096Z,97.40
2017-11-12T23:53:40.329Z,97.33
2017-11-12T23:56:15.480Z,97.29
2017-11-12T23:58:50.713Z,97.39
